Diamond, Ohio
Current Conditions -  °F | °C
As of 3:51 PM on Monday 22 Dec 2014 (Local Time) from KYNG Reporting Station
Broken Clouds Broken Clouds  
Wind Chill: 33°   Ceiling: 25000
Heat Index: 39°   Visibility: 10mi
Dew Point: 29°   Wind: 8mph
Humidity: 67%   Direction: 130°SE
Pressure: 29.99"   Gusts: NA
Location:  41.1°N, 81.02°W
Report Text: KYNG 222051Z 13007KT 10SM BKN250 04/M02 A2999 RMK AO2 SLP168 T00391017 56014
Loading
Personal Weather Stations






























Interactive Weather Map New forecast layout! Learn more

10-Day Weather Forecast

Advertisements
Track Severe Weather on mobile